Terminal Aerodrome Forecast
Issued by NWS Pendleton, OR

Home | Current Version | Previous Version | Text Only | Print | Product List | Glossary On
Versions: 1 2 3 4 5 6 7 8 9 10 11 12
000
FTUS46 KPDT 022320
TAFPDT
TAF
KPDT 022320Z 0300/0324 31011KT P6SM SCT250
     FM030400 23010KT P6SM FEW180 SCT250
     FM030900 16008KT P6SM SCT150 BKN200
     FM031800 27011G19KT P6SM FEW120 BKN150 OVC200=

USA.gov is the U.S. government's official web portal to all federal, state and local government web resources and services.